Ashley, MI

11:41 PM EDT on May 25, 2015 (GMT -0400)
Hoovers Corners | | Change Station
CLOSE
Current Station
Personal Weather Station
Location: Elsie, MI
Elevation: 741 ft
Nearby Weather Stations

Elev 741 ft 43.10 °N, 84.34 °W | Updated 14 minutes ago

Clear
Clear
63.1 °F
Feels Like 63.1 °F
N
3.0
Wind Variable Wind from SW
Gusts 4.0 mph

Today
High -- | Low -- °F
--% Chance of Precip.
Yesterday
High -- | Low -- °F
Precip. -- in
6:05 AM 9:04 PM
First Quarter, 54% visible
Pressure 29.96 in
Visibility 10.0 miles
Clouds Clear
Dew Point 60 °F
Humidity 90%
Rainfall 0.18 in
Snow Depth Not available.
UV 0 out of 12
Pollen 8.10 out of 12
Air Quality Not available.
Flu Activity Sporadic
METAR KAMN 260334Z AUTO 19005KT 10SM CLR 19/16 A2996 RMK AO2 T01910162

More Conditions Fewer Conditions

Pressure 29.96 in
Visibility 10.0 miles
Clouds Clear
Dew Point 60 °F
Humidity 90%
Rainfall 0.18 in
Snow Depth Not available.
UV 0 out of 12
Pollen 8.10 out of 12
Air Quality Not available.
Flu Activity Sporadic
METAR KAMN 260334Z AUTO 19005KT 10SM CLR 19/16 A2996 RMK AO2 T01910162

More Conditions Fewer Conditions

10-Day Weather Forecast

Almanac

Astronomy

May. 25, 2015 Rise Set
Actual Time
Civil Twilight
Nautical Twilight
Astronomical Twilight
Moon
Length of Visible Light
Length of Day
Tomorrow will be .
, % of the Moon is Illuminated

Today's Extremes

State Highs State Lows

Community

WunderPhotos

Upload Photos

1,824,269 photos uploaded!

WunderBlogs® & News

Nearby

Air Quality

  Air Quality AQ Index Pollutant
Not available.

Snow Depth

Station Depth Elevation

Earthquake Activity

City Distance Mag. Time & Date
Minimum magnitude displayed is 2.5.

Coastal Water Temperatures

Place Temperature

Stations

Nearby Weather Stations

Station Location Temp. Windchill Dew Point Humidity Wind Precip. Elev Updated Type